Ilford, Canada
Current Conditions -  °F | °C
As of 11:00 PM on Monday 26 Jan 2015 (Local Time) from CYGX Reporting Station
Light Snow Light Snow  
Wind Chill: -3°   Ceiling: 1100
Heat Index: 10°   Visibility: 6mi
Dew Point:   Wind: 10mph
Humidity: 85%   Direction: 220°SW
Pressure: 29.75"   Gusts: NA
Location:  56.04°N, 95.58°W
Report Text: CYGX 270500Z 22009KT 6SM -SN OVC011 M12/M14 A2975 RMK SC8 SLP090
Loading
Personal Weather Stations






























Interactive Weather Map New forecast layout! Learn more

10-Day Weather Forecast

Advertisements
Track Severe Weather on mobile